createdAt,value
2022-10-02T00:03:48.542Z,11.2
2022-10-02T00:08:47.755Z,11.2
2022-10-02T00:13:47.784Z,11.2
2022-10-02T00:18:47.798Z,11.2
2022-10-02T00:23:48.298Z,11.1
2022-10-02T00:28:48.349Z,11.1
2022-10-02T00:33:48.362Z,11.1
2022-10-02T00:38:48.340Z,11.1
2022-10-02T00:43:48.367Z,11
2022-10-02T00:48:48.355Z,11
2022-10-02T00:53:48.621Z,11
2022-10-02T00:58:48.688Z,11
2022-10-02T01:03:47.832Z,11.1
2022-10-02T01:08:48.067Z,11.1
2022-10-02T01:13:48.281Z,11.1
2022-10-02T01:18:47.828Z,11.1
2022-10-02T01:23:47.822Z,11.2
2022-10-02T01:28:47.889Z,11.2
2022-10-02T01:33:48.617Z,11.2
2022-10-02T01:38:48.992Z,11.2
2022-10-02T01:43:48.068Z,11.3
2022-10-02T01:48:48.045Z,11.3
2022-10-02T01:53:48.066Z,11.3
2022-10-02T01:58:48.158Z,11.3
2022-10-02T02:03:48.343Z,11.3
2022-10-02T02:08:48.611Z,11.3
2022-10-02T02:13:47.798Z,11.3
2022-10-02T02:18:48.071Z,11.3
2022-10-02T02:23:48.169Z,11.2
2022-10-02T02:28:48.189Z,11.2
2022-10-02T02:33:48.476Z,11.1
2022-10-02T02:38:48.714Z,11.1
2022-10-02T02:43:48.050Z,11
2022-10-02T02:48:48.462Z,11
2022-10-02T02:53:48.491Z,10.9
2022-10-02T02:58:48.327Z,10.9
2022-10-02T03:03:48.728Z,10.9
2022-10-02T03:08:49.986Z,10.9
2022-10-02T03:13:48.304Z,10.9
2022-10-02T03:18:48.610Z,10.9
2022-10-02T03:23:47.900Z,10.9
2022-10-02T03:28:55.857Z,10.9
2022-10-02T03:33:47.790Z,10.9
2022-10-02T03:39:00.714Z,10.9
2022-10-02T03:43:48.603Z,10.9
2022-10-02T03:48:48.031Z,10.9
2022-10-02T03:53:48.647Z,10.9
2022-10-02T03:58:47.949Z,10.9
2022-10-02T04:03:48.201Z,10.9
2022-10-02T04:08:48.392Z,10.9
2022-10-02T04:13:48.220Z,10.9
2022-10-02T04:18:48.436Z,10.9
2022-10-02T04:23:48.372Z,10.9
2022-10-02T04:28:48.523Z,10.9
2022-10-02T04:33:48.550Z,10.9
2022-10-02T04:38:48.468Z,10.9
2022-10-02T04:43:48.704Z,10.8
2022-10-02T04:48:47.983Z,10.8
2022-10-02T04:53:48.507Z,10.7
2022-10-02T04:58:48.081Z,10.7
2022-10-02T05:03:48.407Z,10.6
2022-10-02T05:08:48.679Z,10.6
2022-10-02T05:13:48.014Z,10.5
2022-10-02T05:18:48.092Z,10.5
2022-10-02T05:23:48.404Z,10.4
2022-10-02T05:28:48.669Z,10.4
2022-10-02T05:33:48.483Z,10.3
2022-10-02T05:38:48.896Z,10.3
2022-10-02T05:43:48.077Z,10.2
2022-10-02T05:48:48.335Z,10.2
2022-10-02T05:53:48.468Z,10.2
2022-10-02T05:58:48.598Z,10.2
2022-10-02T06:03:48.804Z,10.2
2022-10-02T06:08:47.978Z,10.2
2022-10-02T06:13:48.211Z,10.3
2022-10-02T06:18:48.352Z,10.3
2022-10-02T06:23:48.536Z,10.3
2022-10-02T06:28:48.741Z,10.3
2022-10-02T06:33:48.817Z,10.3
2022-10-02T06:38:48.099Z,10.3
2022-10-02T06:43:48.221Z,10.4
2022-10-02T06:48:48.384Z,10.4
2022-10-02T06:53:48.505Z,10.5
2022-10-02T06:58:48.633Z,10.5
2022-10-02T07:03:48.037Z,10.7
2022-10-02T07:08:48.296Z,10.7
2022-10-02T07:13:48.358Z,10.8
2022-10-02T07:18:48.439Z,10.8
2022-10-02T07:23:48.698Z,11
2022-10-02T07:28:47.897Z,11
2022-10-02T07:33:47.939Z,11.1
2022-10-02T07:38:47.966Z,11.1
2022-10-02T07:43:47.990Z,11.2
2022-10-02T07:48:48.131Z,11.2
2022-10-02T07:53:48.234Z,11.3
2022-10-02T07:58:48.406Z,11.3
2022-10-02T08:03:48.487Z,11.6
2022-10-02T08:08:48.693Z,11.6
2022-10-02T08:13:48.748Z,11.8
2022-10-02T08:18:48.906Z,11.8
2022-10-02T08:23:48.960Z,11.9
2022-10-02T08:28:48.179Z,11.9
2022-10-02T08:33:48.279Z,12
2022-10-02T08:38:52.584Z,12
2022-10-02T08:43:48.164Z,12.1
2022-10-02T08:48:48.309Z,12.1
2022-10-02T08:53:48.825Z,12
2022-10-02T08:58:48.276Z,12
2022-10-02T09:03:48.628Z,11.9
2022-10-02T09:08:48.937Z,11.9
2022-10-02T09:13:48.254Z,11.9
2022-10-02T09:18:48.529Z,11.9
2022-10-02T09:23:48.825Z,12.3
2022-10-02T09:28:48.283Z,12.3
2022-10-02T09:33:48.423Z,12.7
2022-10-02T09:38:48.846Z,12.7
2022-10-02T09:43:48.264Z,12.9
2022-10-02T09:48:48.446Z,12.9
2022-10-02T09:53:48.830Z,13.2
2022-10-02T09:58:48.882Z,13.2
2022-10-02T10:03:48.043Z,13.7
2022-10-02T10:08:48.154Z,13.7
2022-10-02T10:13:48.358Z,14.2
2022-10-02T10:18:48.475Z,14.2
2022-10-02T10:23:48.538Z,14.7
2022-10-02T10:28:48.694Z,14.7
2022-10-02T10:33:48.891Z,15.1
2022-10-02T10:38:48.148Z,15.1
2022-10-02T10:43:48.350Z,15.3
2022-10-02T10:48:49.718Z,15.3
2022-10-02T10:53:48.082Z,15.3
2022-10-02T10:58:48.287Z,15.3
2022-10-02T11:03:48.786Z,15.3
2022-10-02T11:08:48.976Z,15.3
2022-10-02T11:13:48.148Z,15.3
2022-10-02T11:18:48.284Z,15.3
2022-10-02T11:23:48.472Z,15.1
2022-10-02T11:28:48.634Z,15.1
2022-10-02T11:33:48.847Z,14.9
2022-10-02T11:38:49.063Z,14.9
2022-10-02T11:43:48.175Z,14.8
2022-10-02T11:48:48.338Z,14.8
2022-10-02T11:53:48.463Z,14.4
2022-10-02T11:58:48.634Z,14.4
2022-10-02T12:03:48.711Z,14.7
2022-10-02T12:08:48.772Z,14.7
2022-10-02T12:13:48.931Z,15.2
2022-10-02T12:18:48.176Z,15.2
2022-10-02T12:23:48.242Z,15.7
2022-10-02T12:28:48.553Z,15.7
2022-10-02T12:33:51.751Z,15.6
2022-10-02T12:38:49.107Z,15.6
2022-10-02T12:43:48.277Z,15.6
2022-10-02T12:48:48.491Z,15.6
2022-10-02T12:53:48.725Z,15.8
2022-10-02T12:58:48.997Z,15.8
2022-10-02T13:03:48.230Z,16.1
2022-10-02T13:08:48.554Z,16.1
2022-10-02T13:13:48.797Z,16.1
2022-10-02T13:18:48.231Z,16.1
2022-10-02T13:23:48.381Z,16.2
2022-10-02T13:28:48.668Z,16.2
2022-10-02T13:33:48.568Z,16.3
2022-10-02T13:38:48.771Z,16.3
2022-10-02T13:43:48.162Z,16.4
2022-10-02T13:48:48.553Z,16.4
2022-10-02T13:53:48.852Z,16.6
2022-10-02T13:58:49.149Z,16.6
2022-10-02T14:03:48.278Z,16.8
2022-10-02T14:08:48.524Z,16.8
2022-10-02T14:13:48.657Z,16.8
2022-10-02T14:18:48.729Z,16.8
2022-10-02T14:23:48.797Z,16.4
2022-10-02T14:28:48.995Z,16.4
2022-10-02T14:33:48.168Z,16.5
2022-10-02T14:38:48.644Z,16.5
2022-10-02T14:43:49.012Z,16.3
2022-10-02T14:48:48.271Z,16.3
2022-10-02T14:53:48.545Z,15.9
2022-10-02T14:58:48.446Z,15.9
2022-10-02T15:03:49.112Z,15.5
2022-10-02T15:08:48.957Z,15.5
2022-10-02T15:13:48.491Z,15.3
2022-10-02T15:18:48.941Z,15.3
2022-10-02T15:23:48.330Z,15.1
2022-10-02T15:28:48.802Z,15.1
2022-10-02T15:33:49.170Z,14.8
2022-10-02T15:38:48.449Z,14.8
2022-10-02T15:43:48.617Z,14.7
2022-10-02T15:48:52.383Z,14.7
2022-10-02T15:53:49.139Z,14.6
2022-10-02T15:58:48.299Z,14.6
2022-10-02T16:03:48.421Z,14.4
2022-10-02T16:08:48.926Z,14.4
2022-10-02T16:13:48.361Z,14.4
2022-10-02T16:18:48.480Z,14.4
2022-10-02T16:23:49.019Z,14.3
2022-10-02T16:28:49.232Z,14.3
2022-10-02T16:33:48.671Z,14.2
2022-10-02T16:38:48.884Z,14.2
2022-10-02T16:43:48.999Z,14
2022-10-02T16:48:49.150Z,14
2022-10-02T16:53:48.334Z,13.8
2022-10-02T16:58:48.548Z,13.8
2022-10-02T17:03:48.783Z,13.7
2022-10-02T17:08:48.932Z,13.7
2022-10-02T17:13:48.501Z,13.6
2022-10-02T17:18:48.660Z,13.6
2022-10-02T17:23:48.858Z,13.4
2022-10-02T17:28:49.058Z,13.4
2022-10-02T17:33:49.201Z,13.3
2022-10-02T17:38:48.420Z,13.3
2022-10-02T17:43:48.765Z,13.2
2022-10-02T17:48:48.881Z,13.2
2022-10-02T17:53:49.031Z,12.9
2022-10-02T17:58:49.231Z,12.9
2022-10-02T18:03:48.375Z,12.8
2022-10-02T18:08:48.437Z,12.8
2022-10-02T18:13:48.774Z,12.7
2022-10-02T18:18:48.933Z,12.7
2022-10-02T18:23:49.182Z,12.6
2022-10-02T18:28:48.269Z,12.6
2022-10-02T18:33:48.351Z,12.4
2022-10-02T18:38:48.395Z,12.4
2022-10-02T18:43:48.773Z,12.3
2022-10-02T18:48:48.898Z,12.3
2022-10-02T18:53:48.945Z,12.2
2022-10-02T18:58:49.033Z,12.2
2022-10-02T19:03:49.115Z,12.1
2022-10-02T19:08:49.335Z,12.1
2022-10-02T19:13:48.370Z,11.9
2022-10-02T19:18:48.585Z,11.9
2022-10-02T19:23:48.631Z,11.8
2022-10-02T19:28:49.046Z,11.8
2022-10-02T19:33:49.158Z,11.7
2022-10-02T19:38:49.282Z,11.7
2022-10-02T19:43:48.420Z,11.6
2022-10-02T19:48:48.556Z,11.6
2022-10-02T19:53:48.696Z,11.6
2022-10-02T19:58:48.810Z,11.6
2022-10-02T20:03:49.132Z,11.5
2022-10-02T20:08:49.309Z,11.5
2022-10-02T20:13:48.472Z,11.4
2022-10-02T20:18:48.566Z,11.4
2022-10-02T20:23:48.772Z,11.4
2022-10-02T20:28:48.978Z,11.4
2022-10-02T20:33:49.084Z,11.4
2022-10-02T20:38:49.445Z,11.4
2022-10-02T20:43:48.835Z,11.3
2022-10-02T20:49:07.371Z,11.3
2022-10-02T20:53:48.523Z,11.3
2022-10-02T20:58:49.252Z,11.3
2022-10-02T21:03:48.510Z,11.2
2022-10-02T21:08:48.658Z,11.2
2022-10-02T21:13:49.123Z,11.2
2022-10-02T21:18:49.139Z,11.2
2022-10-02T21:23:48.533Z,11.1
2022-10-02T21:28:48.869Z,11.1
2022-10-02T21:33:49.139Z,11.1
2022-10-02T21:38:49.364Z,11.1
2022-10-02T21:43:48.494Z,11
2022-10-02T21:48:48.714Z,11
2022-10-02T21:53:48.832Z,10.9
2022-10-02T21:58:49.073Z,10.9
2022-10-02T22:03:49.446Z,10.9
2022-10-02T22:08:48.759Z,10.9
2022-10-02T22:13:48.713Z,10.9
2022-10-02T22:18:49.299Z,10.9
2022-10-02T22:23:48.607Z,10.8
2022-10-02T22:28:49.182Z,10.8
2022-10-02T22:33:48.587Z,10.8
2022-10-02T22:38:48.878Z,10.8
2022-10-02T22:43:48.871Z,10.8
2022-10-02T22:48:48.983Z,10.8
2022-10-02T22:53:49.165Z,10.8
2022-10-02T22:58:49.384Z,10.8
2022-10-02T23:03:48.459Z,10.8
2022-10-02T23:08:49.229Z,10.8
2022-10-02T23:13:48.702Z,10.8
2022-10-02T23:18:48.869Z,10.8
2022-10-02T23:23:49.146Z,10.8
2022-10-02T23:28:49.240Z,10.8
2022-10-02T23:33:48.628Z,10.8
2022-10-02T23:38:48.811Z,10.8
2022-10-02T23:43:48.846Z,10.8
2022-10-02T23:48:48.846Z,10.8
2022-10-02T23:53:49.134Z,10.8
2022-10-02T23:58:49.184Z,10.8
